sensor_id;sensor_type;location;lat;lon;timestamp;pressure;altitude;pressure_sealevel;temperature;humidity
60258;BME280;46115;44.484;11.314;2024-03-07T00:02:55;100399.16;;;10.07;76.10
60258;BME280;46115;44.484;11.314;2024-03-07T00:06:57;100396.66;;;9.66;76.57
60258;BME280;46115;44.484;11.314;2024-03-07T00:11:01;100392.91;;;9.72;76.42
60258;BME280;46115;44.484;11.314;2024-03-07T00:15:04;100398.19;;;9.72;76.92
60258;BME280;46115;44.484;11.314;2024-03-07T00:19:06;100406.81;;;9.75;76.14
60258;BME280;46115;44.484;11.314;2024-03-07T00:23:08;100419.84;;;9.97;75.91
60258;BME280;46115;44.484;11.314;2024-03-07T00:27:12;100408.41;;;10.34;76.10
60258;BME280;46115;44.484;11.314;2024-03-07T00:31:15;100415.50;;;9.96;76.83
60258;BME280;46115;44.484;11.314;2024-03-07T00:35:18;100418.50;;;10.07;77.15
60258;BME280;46115;44.484;11.314;2024-03-07T00:39:21;100423.44;;;10.51;75.97
60258;BME280;46115;44.484;11.314;2024-03-07T00:43:26;100425.56;;;10.25;77.89
60258;BME280;46115;44.484;11.314;2024-03-07T00:47:29;100415.03;;;10.43;77.38
60258;BME280;46115;44.484;11.314;2024-03-07T00:51:33;100421.69;;;10.32;78.47
60258;BME280;46115;44.484;11.314;2024-03-07T00:55:35;100428.09;;;10.46;77.33
60258;BME280;46115;44.484;11.314;2024-03-07T00:59:39;100430.22;;;10.20;79.43
60258;BME280;46115;44.484;11.314;2024-03-07T01:03:41;100428.97;;;10.46;78.63
60258;BME280;46115;44.484;11.314;2024-03-07T01:07:44;100428.13;;;9.89;82.22
60258;BME280;46115;44.484;11.314;2024-03-07T01:11:47;100427.13;;;9.92;81.67
60258;BME280;46115;44.484;11.314;2024-03-07T01:15:51;100425.84;;;9.63;83.15
60258;BME280;46115;44.484;11.314;2024-03-07T01:19:54;100419.28;;;10.28;82.01
60258;BME280;46115;44.484;11.314;2024-03-07T01:23:56;100423.34;;;9.60;84.85
60258;BME280;46115;44.484;11.314;2024-03-07T01:28:00;100417.06;;;10.00;84.11
60258;BME280;46115;44.484;11.314;2024-03-07T01:32:06;100416.28;;;9.98;83.83
60258;BME280;46115;44.484;11.314;2024-03-07T01:36:09;100408.56;;;9.56;86.45
60258;BME280;46115;44.484;11.314;2024-03-07T01:40:11;100408.09;;;9.85;86.00
60258;BME280;46115;44.484;11.314;2024-03-07T01:44:15;100411.00;;;9.79;85.93
60258;BME280;46115;44.484;11.314;2024-03-07T01:48:20;100401.84;;;9.67;87.02
60258;BME280;46115;44.484;11.314;2024-03-07T01:52:27;100399.72;;;9.57;88.00
60258;BME280;46115;44.484;11.314;2024-03-07T01:56:30;100394.38;;;9.96;86.58
60258;BME280;46115;44.484;11.314;2024-03-07T02:00:32;100397.50;;;9.48;88.71
60258;BME280;46115;44.484;11.314;2024-03-07T02:04:36;100396.25;;;9.75;87.66
60258;BME280;46115;44.484;11.314;2024-03-07T02:08:38;100398.78;;;10.14;85.60
60258;BME280;46115;44.484;11.314;2024-03-07T02:12:41;100391.09;;;9.53;88.28
60258;BME280;46115;44.484;11.314;2024-03-07T02:16:44;100387.34;;;9.78;87.22
60258;BME280;46115;44.484;11.314;2024-03-07T02:20:48;100381.88;;;9.62;87.96
60258;BME280;46115;44.484;11.314;2024-03-07T02:24:51;100382.34;;;9.14;90.14
60258;BME280;46115;44.484;11.314;2024-03-07T02:28:54;100377.94;;;9.14;89.67
60258;BME280;46115;44.484;11.314;2024-03-07T02:32:56;100374.16;;;8.99;90.38
60258;BME280;46115;44.484;11.314;2024-03-07T02:36:59;100372.41;;;9.58;88.69
60258;BME280;46115;44.484;11.314;2024-03-07T02:41:02;100368.78;;;9.42;88.44
60258;BME280;46115;44.484;11.314;2024-03-07T02:45:05;100362.97;;;9.33;89.28
60258;BME280;46115;44.484;11.314;2024-03-07T02:49:07;100360.81;;;9.04;90.51
60258;BME280;46115;44.484;11.314;2024-03-07T02:53:11;100361.84;;;9.58;88.86
60258;BME280;46115;44.484;11.314;2024-03-07T02:57:14;100364.03;;;9.11;90.97
60258;BME280;46115;44.484;11.314;2024-03-07T03:01:17;100349.16;;;9.47;88.46
60258;BME280;46115;44.484;11.314;2024-03-07T03:05:19;100356.63;;;8.98;90.58
60258;BME280;46115;44.484;11.314;2024-03-07T03:09:23;100349.25;;;9.06;90.74
60258;BME280;46115;44.484;11.314;2024-03-07T03:13:25;100359.34;;;8.97;90.81
60258;BME280;46115;44.484;11.314;2024-03-07T03:17:28;100357.97;;;9.09;90.94
60258;BME280;46115;44.484;11.314;2024-03-07T03:21:31;100360.81;;;8.84;93.32
60258;BME280;46115;44.484;11.314;2024-03-07T03:25:36;100348.63;;;8.61;93.81
60258;BME280;46115;44.484;11.314;2024-03-07T03:29:39;100356.50;;;9.01;91.15
60258;BME280;46115;44.484;11.314;2024-03-07T03:33:41;100354.53;;;8.46;92.35
60258;BME280;46115;44.484;11.314;2024-03-07T03:37:44;100350.72;;;8.53;91.49
60258;BME280;46115;44.484;11.314;2024-03-07T03:41:47;100354.00;;;8.37;92.40
60258;BME280;46115;44.484;11.314;2024-03-07T03:45:50;100354.16;;;8.34;92.53
60258;BME280;46115;44.484;11.314;2024-03-07T03:49:53;100349.19;;;8.25;93.21
60258;BME280;46115;44.484;11.314;2024-03-07T03:53:55;100350.00;;;8.27;93.25
60258;BME280;46115;44.484;11.314;2024-03-07T03:57:59;100350.91;;;8.26;92.76
60258;BME280;46115;44.484;11.314;2024-03-07T04:02:02;100355.16;;;8.72;91.43
60258;BME280;46115;44.484;11.314;2024-03-07T04:06:06;100357.53;;;8.79;91.23
60258;BME280;46115;44.484;11.314;2024-03-07T04:10:09;100357.50;;;8.38;93.07
60258;BME280;46115;44.484;11.314;2024-03-07T04:14:13;100350.25;;;8.21;94.80
60258;BME280;46115;44.484;11.314;2024-03-07T04:18:16;100349.72;;;8.13;94.91
60258;BME280;46115;44.484;11.314;2024-03-07T04:22:18;100355.78;;;7.93;95.29
60258;BME280;46115;44.484;11.314;2024-03-07T04:26:21;100354.59;;;8.22;94.74
60258;BME280;46115;44.484;11.314;2024-03-07T04:30:24;100355.53;;;8.21;95.40
60258;BME280;46115;44.484;11.314;2024-03-07T04:34:27;100355.53;;;8.43;94.51
60258;BME280;46115;44.484;11.314;2024-03-07T04:38:32;100354.81;;;8.60;93.34
60258;BME280;46115;44.484;11.314;2024-03-07T04:42:34;100358.91;;;8.87;92.80
60258;BME280;46115;44.484;11.314;2024-03-07T04:46:37;100365.41;;;8.38;93.91
60258;BME280;46115;44.484;11.314;2024-03-07T04:50:43;100362.97;;;8.32;93.67
60258;BME280;46115;44.484;11.314;2024-03-07T04:54:45;100367.78;;;8.00;94.85
60258;BME280;46115;44.484;11.314;2024-03-07T04:58:48;100362.06;;;7.89;95.07
60258;BME280;46115;44.484;11.314;2024-03-07T05:02:52;100365.09;;;8.02;94.17
60258;BME280;46115;44.484;11.314;2024-03-07T05:06:55;100370.72;;;8.14;93.44
60258;BME280;46115;44.484;11.314;2024-03-07T05:10:58;100371.34;;;7.99;94.25
60258;BME280;46115;44.484;11.314;2024-03-07T05:15:01;100362.59;;;7.99;94.33
60258;BME280;46115;44.484;11.314;2024-03-07T05:19:06;100378.09;;;7.83;94.28
60258;BME280;46115;44.484;11.314;2024-03-07T05:23:09;100372.25;;;7.76;95.93
60258;BME280;46115;44.484;11.314;2024-03-07T05:27:11;100371.94;;;7.84;94.36
60258;BME280;46115;44.484;11.314;2024-03-07T05:31:14;100372.00;;;7.82;94.73
60258;BME280;46115;44.484;11.314;2024-03-07T05:35:20;100376.69;;;7.74;94.62
60258;BME280;46115;44.484;11.314;2024-03-07T05:39:23;100382.81;;;7.75;94.47
60258;BME280;46115;44.484;11.314;2024-03-07T05:43:25;100379.28;;;7.98;93.36
60258;BME280;46115;44.484;11.314;2024-03-07T05:47:28;100386.63;;;7.90;93.32
60258;BME280;46115;44.484;11.314;2024-03-07T05:51:31;100383.19;;;7.88;94.00
60258;BME280;46115;44.484;11.314;2024-03-07T05:55:34;100387.72;;;7.61;94.89
60258;BME280;46115;44.484;11.314;2024-03-07T05:59:36;100392.84;;;7.65;94.10
60258;BME280;46115;44.484;11.314;2024-03-07T06:03:40;100393.16;;;7.79;93.95
60258;BME280;46115;44.484;11.314;2024-03-07T06:07:44;100390.97;;;7.91;93.87
60258;BME280;46115;44.484;11.314;2024-03-07T06:11:47;100392.75;;;7.90;94.20
60258;BME280;46115;44.484;11.314;2024-03-07T06:15:50;100397.22;;;8.10;93.05
60258;BME280;46115;44.484;11.314;2024-03-07T06:19:53;100403.41;;;8.09;93.20
60258;BME280;46115;44.484;11.314;2024-03-07T06:23:57;100406.34;;;8.23;92.18
60258;BME280;46115;44.484;11.314;2024-03-07T06:28:02;100400.91;;;8.50;90.82
60258;BME280;46115;44.484;11.314;2024-03-07T06:32:10;100406.66;;;8.59;89.87
60258;BME280;46115;44.484;11.314;2024-03-07T06:36:12;100409.34;;;8.58;89.94
60258;BME280;46115;44.484;11.314;2024-03-07T06:40:16;100408.53;;;8.35;91.61
60258;BME280;46115;44.484;11.314;2024-03-07T06:44:22;100418.81;;;8.41;91.41
60258;BME280;46115;44.484;11.314;2024-03-07T06:48:25;100417.03;;;8.42;91.45
60258;BME280;46115;44.484;11.314;2024-03-07T06:52:27;100419.91;;;8.78;91.75
60258;BME280;46115;44.484;11.314;2024-03-07T06:56:31;100418.84;;;8.62;91.20
60258;BME280;46115;44.484;11.314;2024-03-07T07:00:34;100418.47;;;8.91;89.32
60258;BME280;46115;44.484;11.314;2024-03-07T07:04:41;100414.63;;;9.39;87.13
60258;BME280;46115;44.484;11.314;2024-03-07T07:08:44;100425.13;;;9.97;83.80
60258;BME280;46115;44.484;11.314;2024-03-07T07:12:48;100431.63;;;10.09;81.62
60258;BME280;46115;44.484;11.314;2024-03-07T07:16:50;100433.47;;;10.44;79.95
60258;BME280;46115;44.484;11.314;2024-03-07T07:20:53;100437.97;;;10.42;80.05
60258;BME280;46115;44.484;11.314;2024-03-07T07:24:57;100438.53;;;10.66;79.16
60258;BME280;46115;44.484;11.314;2024-03-07T07:29:01;100432.16;;;10.53;79.07
60258;BME280;46115;44.484;11.314;2024-03-07T07:33:05;100447.88;;;11.08;76.76
60258;BME280;46115;44.484;11.314;2024-03-07T07:37:08;100443.03;;;11.33;75.67
60258;BME280;46115;44.484;11.314;2024-03-07T07:41:11;100445.94;;;11.62;72.60
60258;BME280;46115;44.484;11.314;2024-03-07T07:45:15;100453.03;;;11.77;72.26
60258;BME280;46115;44.484;11.314;2024-03-07T07:49:18;100455.50;;;12.44;70.24
60258;BME280;46115;44.484;11.314;2024-03-07T07:53:21;100455.53;;;13.20;68.53
60258;BME280;46115;44.484;11.314;2024-03-07T07:57:23;100444.31;;;12.85;66.85
60258;BME280;46115;44.484;11.314;2024-03-07T08:01:27;100443.22;;;13.03;66.66
60258;BME280;46115;44.484;11.314;2024-03-07T08:05:31;100442.66;;;13.71;65.10
60258;BME280;46115;44.484;11.314;2024-03-07T08:09:34;100442.75;;;13.69;65.14
60258;BME280;46115;44.484;11.314;2024-03-07T08:13:37;100455.75;;;13.60;63.83
60258;BME280;46115;44.484;11.314;2024-03-07T08:17:42;100453.47;;;13.96;63.33
60258;BME280;46115;44.484;11.314;2024-03-07T08:21:45;100448.66;;;14.57;61.27
60258;BME280;46115;44.484;11.314;2024-03-07T08:25:47;100447.78;;;13.60;63.67
60258;BME280;46115;44.484;11.314;2024-03-07T08:29:50;100461.81;;;13.90;64.10
60258;BME280;46115;44.484;11.314;2024-03-07T08:33:54;100451.38;;;13.30;64.42
60258;BME280;46115;44.484;11.314;2024-03-07T08:37:57;100450.59;;;13.85;63.49
60258;BME280;46115;44.484;11.314;2024-03-07T08:41:59;100451.50;;;13.57;63.08
60258;BME280;46115;44.484;11.314;2024-03-07T08:46:02;100447.28;;;12.95;64.55
60258;BME280;46115;44.484;11.314;2024-03-07T08:50:07;100456.31;;;13.65;62.65
60258;BME280;46115;44.484;11.314;2024-03-07T08:54:09;100446.75;;;14.32;59.95
60258;BME280;46115;44.484;11.314;2024-03-07T08:58:12;100449.59;;;14.70;58.20
60258;BME280;46115;44.484;11.314;2024-03-07T09:02:14;100447.53;;;15.13;57.38
60258;BME280;46115;44.484;11.314;2024-03-07T09:06:18;100449.03;;;15.94;56.20
60258;BME280;46115;44.484;11.314;2024-03-07T09:10:21;100450.06;;;16.16;53.95
60258;BME280;46115;44.484;11.314;2024-03-07T09:14:25;100460.22;;;16.96;52.48
60258;BME280;46115;44.484;11.314;2024-03-07T09:18:27;100461.97;;;17.99;50.67
60258;BME280;46115;44.484;11.314;2024-03-07T09:22:31;100458.66;;;18.29;51.93
60258;BME280;46115;44.484;11.314;2024-03-07T09:26:34;100463.19;;;17.95;50.65
60258;BME280;46115;44.484;11.314;2024-03-07T09:30:36;100460.91;;;18.67;49.07
60258;BME280;46115;44.484;11.314;2024-03-07T09:34:40;100467.88;;;20.04;46.51
60258;BME280;46115;44.484;11.314;2024-03-07T09:38:44;100465.25;;;20.14;45.85
60258;BME280;46115;44.484;11.314;2024-03-07T09:42:48;100456.34;;;19.52;46.11
60258;BME280;46115;44.484;11.314;2024-03-07T09:46:55;100443.66;;;20.15;45.71
60258;BME280;46115;44.484;11.314;2024-03-07T09:50:59;100451.31;;;20.30;45.86
60258;BME280;46115;44.484;11.314;2024-03-07T09:55:07;100451.97;;;19.51;47.55
60258;BME280;46115;44.484;11.314;2024-03-07T09:59:12;100457.41;;;19.91;46.50
60258;BME280;46115;44.484;11.314;2024-03-07T10:03:15;100455.88;;;19.47;47.57
60258;BME280;46115;44.484;11.314;2024-03-07T10:07:22;100450.59;;;19.57;48.08
60258;BME280;46115;44.484;11.314;2024-03-07T10:11:25;100450.75;;;18.27;48.29
60258;BME280;46115;44.484;11.314;2024-03-07T10:15:29;100450.25;;;18.88;48.47
60258;BME280;46115;44.484;11.314;2024-03-07T10:19:31;100458.25;;;18.56;49.74
60258;BME280;46115;44.484;11.314;2024-03-07T10:23:34;100457.56;;;18.31;48.60
60258;BME280;46115;44.484;11.314;2024-03-07T10:27:38;100470.22;;;18.29;48.32
60258;BME280;46115;44.484;11.314;2024-03-07T10:31:41;100464.78;;;18.08;48.25
60258;BME280;46115;44.484;11.314;2024-03-07T10:35:46;100453.66;;;18.35;48.07
60258;BME280;46115;44.484;11.314;2024-03-07T10:39:50;100459.34;;;17.30;48.90
60258;BME280;46115;44.484;11.314;2024-03-07T10:43:57;100458.66;;;17.62;49.64
60258;BME280;46115;44.484;11.314;2024-03-07T10:48:03;100458.13;;;17.34;48.72
60258;BME280;46115;44.484;11.314;2024-03-07T10:52:13;100461.00;;;17.89;49.56
60258;BME280;46115;44.484;11.314;2024-03-07T10:56:35;100470.56;;;17.58;50.38
60258;BME280;46115;44.484;11.314;2024-03-07T11:00:45;100464.84;;;17.62;49.10
60258;BME280;46115;44.484;11.314;2024-03-07T11:04:48;100451.19;;;17.21;49.20
60258;BME280;46115;44.484;11.314;2024-03-07T11:08:51;100454.94;;;17.07;48.94
60258;BME280;46115;44.484;11.314;2024-03-07T11:12:54;100441.56;;;17.07;49.97
60258;BME280;46115;44.484;11.314;2024-03-07T11:17:00;100435.66;;;16.79;49.55
60258;BME280;46115;44.484;11.314;2024-03-07T11:21:05;100438.09;;;16.94;50.33
60258;BME280;46115;44.484;11.314;2024-03-07T11:25:08;100429.56;;;16.77;49.56
60258;BME280;46115;44.484;11.314;2024-03-07T11:29:38;100427.94;;;16.03;49.88
60258;BME280;46115;44.484;11.314;2024-03-07T11:34:12;100422.91;;;16.35;48.98
60258;BME280;46115;44.484;11.314;2024-03-07T11:38:19;100429.59;;;16.17;49.24
60258;BME280;46115;44.484;11.314;2024-03-07T11:42:25;100416.75;;;16.22;47.81
60258;BME280;46115;44.484;11.314;2024-03-07T11:46:32;100406.31;;;16.19;48.10
60258;BME280;46115;44.484;11.314;2024-03-07T11:50:38;100416.47;;;16.14;48.40
60258;BME280;46115;44.484;11.314;2024-03-07T11:54:40;100406.38;;;16.06;47.61
60258;BME280;46115;44.484;11.314;2024-03-07T11:58:49;100406.38;;;16.06;47.26
60258;BME280;46115;44.484;11.314;2024-03-07T12:02:55;100394.00;;;16.05;47.91
60258;BME280;46115;44.484;11.314;2024-03-07T12:06:59;100392.09;;;16.31;49.06
60258;BME280;46115;44.484;11.314;2024-03-07T12:11:02;100387.31;;;16.47;48.79
60258;BME280;46115;44.484;11.314;2024-03-07T12:15:05;100381.56;;;16.65;50.04
60258;BME280;46115;44.484;11.314;2024-03-07T12:19:16;100381.13;;;16.47;50.28
60258;BME280;46115;44.484;11.314;2024-03-07T12:23:22;100382.44;;;16.65;48.74
60258;BME280;46115;44.484;11.314;2024-03-07T12:27:26;100381.78;;;15.90;51.62
60258;BME280;46115;44.484;11.314;2024-03-07T12:31:30;100381.63;;;16.04;51.95
60258;BME280;46115;44.484;11.314;2024-03-07T12:35:35;100375.91;;;16.21;50.56
60258;BME280;46115;44.484;11.314;2024-03-07T12:39:41;100377.50;;;16.24;50.54
60258;BME280;46115;44.484;11.314;2024-03-07T12:43:48;100366.28;;;15.95;52.60
60258;BME280;46115;44.484;11.314;2024-03-07T12:47:51;100377.44;;;15.76;51.89
60258;BME280;46115;44.484;11.314;2024-03-07T12:51:55;100363.69;;;15.57;52.54
60258;BME280;46115;44.484;11.314;2024-03-07T12:55:59;100364.41;;;15.84;51.33
60258;BME280;46115;44.484;11.314;2024-03-07T13:00:02;100362.25;;;15.27;51.58
60258;BME280;46115;44.484;11.314;2024-03-07T13:04:17;100354.75;;;14.42;53.20
60258;BME280;46115;44.484;11.314;2024-03-07T13:08:20;100353.69;;;14.05;53.83
60258;BME280;46115;44.484;11.314;2024-03-07T13:12:28;100351.66;;;14.09;53.88
60258;BME280;46115;44.484;11.314;2024-03-07T13:16:32;100340.59;;;14.29;53.60
60258;BME280;46115;44.484;11.314;2024-03-07T13:20:35;100290.28;;;13.72;54.65
60258;BME280;46115;44.484;11.314;2024-03-07T13:24:38;100328.97;;;14.57;53.92
60258;BME280;46115;44.484;11.314;2024-03-07T13:28:45;100322.97;;;14.14;54.84
60258;BME280;46115;44.484;11.314;2024-03-07T13:32:48;100329.00;;;14.82;53.88
60258;BME280;46115;44.484;11.314;2024-03-07T13:36:51;100334.16;;;14.19;54.65
60258;BME280;46115;44.484;11.314;2024-03-07T13:40:53;100333.38;;;14.71;54.69
60258;BME280;46115;44.484;11.314;2024-03-07T13:44:59;100336.47;;;14.38;54.31
60258;BME280;46115;44.484;11.314;2024-03-07T13:49:03;100333.94;;;14.22;55.29
60258;BME280;46115;44.484;11.314;2024-03-07T13:53:13;100324.66;;;14.02;55.50
60258;BME280;46115;44.484;11.314;2024-03-07T13:57:26;100324.03;;;14.11;55.36
60258;BME280;46115;44.484;11.314;2024-03-07T14:01:41;100312.03;;;14.45;54.86
60258;BME280;46115;44.484;11.314;2024-03-07T14:05:59;100301.03;;;13.97;54.32
60258;BME280;46115;44.484;11.314;2024-03-07T14:10:22;100299.81;;;14.16;54.59
60258;BME280;46115;44.484;11.314;2024-03-07T14:29:05;100302.81;;;14.24;54.89
60258;BME280;46115;44.484;11.314;2024-03-07T14:33:15;100295.53;;;14.13;54.87
60258;BME280;46115;44.484;11.314;2024-03-07T14:37:21;100284.59;;;14.18;56.04
60258;BME280;46115;44.484;11.314;2024-03-07T14:41:42;100284.03;;;14.40;55.32
60258;BME280;46115;44.484;11.314;2024-03-07T14:45:47;100281.53;;;14.63;55.93
60258;BME280;46115;44.484;11.314;2024-03-07T14:49:49;100280.25;;;14.17;56.61
60258;BME280;46115;44.484;11.314;2024-03-07T14:53:52;100287.84;;;14.23;56.01
60258;BME280;46115;44.484;11.314;2024-03-07T14:57:54;100285.13;;;13.83;56.54
60258;BME280;46115;44.484;11.314;2024-03-07T15:01:59;100283.41;;;14.09;56.04
60258;BME280;46115;44.484;11.314;2024-03-07T15:06:04;100283.59;;;13.93;56.14
60258;BME280;46115;44.484;11.314;2024-03-07T15:10:14;100277.84;;;13.72;56.70
60258;BME280;46115;44.484;11.314;2024-03-07T15:14:19;100274.13;;;13.89;56.81
60258;BME280;46115;44.484;11.314;2024-03-07T15:18:23;100275.22;;;14.12;55.13
60258;BME280;46115;44.484;11.314;2024-03-07T15:22:26;100274.25;;;14.00;54.35
60258;BME280;46115;44.484;11.314;2024-03-07T15:26:28;100270.19;;;13.68;55.30
60258;BME280;46115;44.484;11.314;2024-03-07T15:30:32;100263.41;;;14.03;55.80
60258;BME280;46115;44.484;11.314;2024-03-07T15:34:37;100263.84;;;14.10;54.83
60258;BME280;46115;44.484;11.314;2024-03-07T15:38:40;100258.50;;;13.70;56.64
60258;BME280;46115;44.484;11.314;2024-03-07T15:42:44;100242.44;;;13.59;56.51
60258;BME280;46115;44.484;11.314;2024-03-07T15:46:48;100249.50;;;13.73;56.47
60258;BME280;46115;44.484;11.314;2024-03-07T15:50:52;100246.84;;;13.73;57.48
60258;BME280;46115;44.484;11.314;2024-03-07T15:54:54;100240.03;;;13.69;56.70
60258;BME280;46115;44.484;11.314;2024-03-07T15:58:57;100245.44;;;13.94;56.31
60258;BME280;46115;44.484;11.314;2024-03-07T16:03:00;100240.56;;;14.14;55.18
60258;BME280;46115;44.484;11.314;2024-03-07T16:07:06;100243.78;;;14.58;54.69
60258;BME280;46115;44.484;11.314;2024-03-07T16:11:08;100242.03;;;14.45;55.13
60258;BME280;46115;44.484;11.314;2024-03-07T16:15:11;100238.50;;;14.31;55.53
60258;BME280;46115;44.484;11.314;2024-03-07T16:19:13;100242.22;;;14.42;54.73
60258;BME280;46115;44.484;11.314;2024-03-07T16:23:17;100240.63;;;14.26;55.03
60258;BME280;46115;44.484;11.314;2024-03-07T16:27:20;100244.34;;;14.36;55.17
60258;BME280;46115;44.484;11.314;2024-03-07T16:31:22;100246.22;;;14.22;56.65
60258;BME280;46115;44.484;11.314;2024-03-07T16:35:29;100239.88;;;14.37;55.88
60258;BME280;46115;44.484;11.314;2024-03-07T16:39:34;100235.00;;;14.31;55.70
60258;BME280;46115;44.484;11.314;2024-03-07T16:43:37;100236.38;;;14.24;56.69
60258;BME280;46115;44.484;11.314;2024-03-07T16:47:40;100237.66;;;13.91;56.98
60258;BME280;46115;44.484;11.314;2024-03-07T16:51:43;100245.41;;;14.34;56.86
60258;BME280;46115;44.484;11.314;2024-03-07T16:55:47;100240.53;;;13.88;56.52
60258;BME280;46115;44.484;11.314;2024-03-07T16:59:49;100248.63;;;13.99;56.23
60258;BME280;46115;44.484;11.314;2024-03-07T17:03:52;100251.06;;;13.90;56.17
60258;BME280;46115;44.484;11.314;2024-03-07T17:07:55;100251.63;;;13.81;56.46
60258;BME280;46115;44.484;11.314;2024-03-07T17:11:59;100255.91;;;13.56;57.24
60258;BME280;46115;44.484;11.314;2024-03-07T17:16:02;100249.16;;;13.51;56.78
60258;BME280;46115;44.484;11.314;2024-03-07T17:20:06;100248.47;;;13.34;57.37
60258;BME280;46115;44.484;11.314;2024-03-07T17:24:08;100252.25;;;13.30;57.61
60258;BME280;46115;44.484;11.314;2024-03-07T17:28:14;100255.88;;;13.01;58.78
60258;BME280;46115;44.484;11.314;2024-03-07T17:32:18;100257.38;;;13.05;60.86
60258;BME280;46115;44.484;11.314;2024-03-07T17:36:20;100256.03;;;13.12;60.30
60258;BME280;46115;44.484;11.314;2024-03-07T17:40:23;100266.00;;;13.08;59.36
60258;BME280;46115;44.484;11.314;2024-03-07T23:06:08;100249.03;;;8.69;75.55
60258;BME280;46115;44.484;11.314;2024-03-07T23:10:12;100250.09;;;8.84;75.33
60258;BME280;46115;44.484;11.314;2024-03-07T23:14:16;100251.50;;;9.11;74.04
60258;BME280;46115;44.484;11.314;2024-03-07T23:18:20;100256.03;;;8.89;75.26
60258;BME280;46115;44.484;11.314;2024-03-07T23:22:24;100257.22;;;9.00;74.71
60258;BME280;46115;44.484;11.314;2024-03-07T23:26:27;100250.31;;;8.98;74.81
60258;BME280;46115;44.484;11.314;2024-03-07T23:30:29;100253.91;;;8.58;75.94
60258;BME280;46115;44.484;11.314;2024-03-07T23:34:32;100257.41;;;8.38;76.94
60258;BME280;46115;44.484;11.314;2024-03-07T23:38:36;100247.09;;;8.33;77.44
60258;BME280;46115;44.484;11.314;2024-03-07T23:42:41;100249.13;;;8.25;77.81
60258;BME280;46115;44.484;11.314;2024-03-07T23:46:43;100254.53;;;8.22;78.62
60258;BME280;46115;44.484;11.314;2024-03-07T23:50:46;100248.41;;;8.01;79.92
60258;BME280;46115;44.484;11.314;2024-03-07T23:54:50;100251.72;;;8.06;80.21
60258;BME280;46115;44.484;11.314;2024-03-07T23:58:54;100248.28;;;8.04;79.65
